METAR Data
IDs: Format: Raw Decoded Include TAF

Data at: 1944 UTC 18 Apr 2021

LZKZ 181930Z 35009KT 9999 -RA NSC 08/06 Q1017